TAF and METAR

METAR for Ahwaz Airport

OIAW 061200Z 29008KT CAVOK 44/04 Q0995
Report created 6. aug 14:00
wind 8 knots from WNW (290°) Clear sky Temperature 44° with dewpoint at 4° (Humidity 8.97%) Pressure 995 hPa

TAF for Ahwaz Airport

TAF OIAW 061130Z 0612/0718 28010KT 7000 NSC
Report created 6. aug 13:30

between 6. aug 14:00 - 7. aug 20:00

wind 10 knots from W (280°) visibility 7000 meters No significant clouds.